sensor_id;sensor_type;location;lat;lon;timestamp;pressure;altitude;pressure_sealevel;temperature;humidity
19108;BME280;9686;48.832;9.126;2023-04-01T00:00:16;96805.22;;;9.98;nan
19108;BME280;9686;48.832;9.126;2023-04-01T00:02:41;96808.03;;;9.88;nan
19108;BME280;9686;48.832;9.126;2023-04-01T00:05:07;96804.47;;;9.93;nan
19108;BME280;9686;48.832;9.126;2023-04-01T00:07:32;96804.41;;;9.96;nan
19108;BME280;9686;48.832;9.126;2023-04-01T00:09:58;96804.47;;;9.93;nan
19108;BME280;9686;48.832;9.126;2023-04-01T00:12:23;96813.00;;;9.98;nan
19108;BME280;9686;48.832;9.126;2023-04-01T00:14:50;96805.94;;;10.03;nan
19108;BME280;9686;48.832;9.126;2023-04-01T00:17:15;96815.28;;;10.10;nan
19108;BME280;9686;48.832;9.126;2023-04-01T00:19:40;96817.75;;;10.14;nan
19108;BME280;9686;48.832;9.126;2023-04-01T00:22:06;96808.31;;;10.10;nan
19108;BME280;9686;48.832;9.126;2023-04-01T00:24:32;96808.28;;;10.12;nan
19108;BME280;9686;48.832;9.126;2023-04-01T00:26:57;96812.63;;;10.11;nan
19108;BME280;9686;48.832;9.126;2023-04-01T00:29:23;96808.38;;;10.09;nan
19108;BME280;9686;48.832;9.126;2023-04-01T00:31:49;96815.31;;;10.08;nan
19108;BME280;9686;48.832;9.126;2023-04-01T00:34:14;96812.59;;;10.13;nan
19108;BME280;9686;48.832;9.126;2023-04-01T00:36:40;96815.25;;;10.11;nan
19108;BME280;9686;48.832;9.126;2023-04-01T00:39:05;96812.63;;;10.11;nan
19108;BME280;9686;48.832;9.126;2023-04-01T00:41:30;96815.28;;;10.10;nan
19108;BME280;9686;48.832;9.126;2023-04-01T00:44:17;96817.88;;;10.10;nan
19108;BME280;9686;48.832;9.126;2023-04-01T00:46:43;96823.75;;;10.18;nan
19108;BME280;9686;48.832;9.126;2023-04-01T00:49:09;96823.72;;;10.19;nan
19108;BME280;9686;48.832;9.126;2023-04-01T00:51:36;96819.44;;;10.17;nan
19108;BME280;9686;48.832;9.126;2023-04-01T00:54:04;96819.31;;;10.23;nan
19108;BME280;9686;48.832;9.126;2023-04-01T00:56:34;96818.50;;;10.21;nan
19108;BME280;9686;48.832;9.126;2023-04-01T00:59:04;96818.47;;;10.23;nan
19108;BME280;9686;48.832;9.126;2023-04-01T01:01:34;96820.94;;;10.27;nan
19108;BME280;9686;48.832;9.126;2023-04-01T01:04:00;96826.91;;;10.31;nan
19108;BME280;9686;48.832;9.126;2023-04-01T01:09:25;96818.31;;;10.27;nan
19108;BME280;9686;48.832;9.126;2023-04-01T01:12:04;96820.06;;;10.27;nan
19108;BME280;9686;48.832;9.126;2023-04-01T01:23:05;96818.50;;;10.19;nan
19108;BME280;9686;48.832;9.126;2023-04-01T01:36:59;96823.63;;;10.24;nan
19108;BME280;9686;48.832;9.126;2023-04-01T01:39:28;96821.09;;;10.21;nan
19108;BME280;9686;48.832;9.126;2023-04-01T01:41:57;96824.38;;;10.28;nan
19108;BME280;9686;48.832;9.126;2023-04-01T01:44:27;96824.38;;;10.28;nan
19108;BME280;9686;48.832;9.126;2023-04-01T01:46:54;96818.38;;;10.26;nan
19108;BME280;9686;48.832;9.126;2023-04-01T01:49:20;96823.91;;;10.12;nan
19108;BME280;9686;48.832;9.126;2023-04-01T01:51:46;96824.75;;;10.12;nan
19108;BME280;9686;48.832;9.126;2023-04-01T01:54:14;96827.53;;;10.06;nan
19108;BME280;9686;48.832;9.126;2023-04-01T01:56:41;96821.47;;;10.06;nan
19108;BME280;9686;48.832;9.126;2023-04-01T01:59:08;96824.13;;;10.04;nan
19108;BME280;9686;48.832;9.126;2023-04-01T02:01:38;96823.38;;;9.99;nan
19108;BME280;9686;48.832;9.126;2023-04-01T02:04:05;96818.44;;;9.88;nan
19108;BME280;9686;48.832;9.126;2023-04-01T02:06:34;96818.44;;;9.88;nan
19108;BME280;9686;48.832;9.126;2023-04-01T02:09:04;96808.03;;;9.90;nan
19108;BME280;9686;48.832;9.126;2023-04-01T02:14:11;96817.50;;;9.93;nan
19108;BME280;9686;48.832;9.126;2023-04-01T02:16:44;96831.44;;;9.88;nan
19108;BME280;9686;48.832;9.126;2023-04-01T02:19:13;96823.63;;;9.88;nan
19108;BME280;9686;48.832;9.126;2023-04-01T02:21:40;96840.19;;;9.86;nan
19108;BME280;9686;48.832;9.126;2023-04-01T02:24:11;96827.31;;;9.81;nan
19108;BME280;9686;48.832;9.126;2023-04-01T02:26:37;96831.75;;;9.78;nan
19108;BME280;9686;48.832;9.126;2023-04-01T02:29:05;96833.38;;;9.82;nan
19108;BME280;9686;48.832;9.126;2023-04-01T02:31:31;96831.66;;;9.81;nan
19108;BME280;9686;48.832;9.126;2023-04-01T02:33:57;96820.56;;;9.74;nan
19108;BME280;9686;48.832;9.126;2023-04-01T02:36:23;96828.25;;;9.79;nan
19108;BME280;9686;48.832;9.126;2023-04-01T02:38:49;96826.69;;;9.72;nan
19108;BME280;9686;48.832;9.126;2023-04-01T02:41:15;96830.06;;;9.75;nan
19108;BME280;9686;48.832;9.126;2023-04-01T02:43:40;96823.25;;;9.71;nan
19108;BME280;9686;48.832;9.126;2023-04-01T02:46:06;96824.94;;;9.72;nan
19108;BME280;9686;48.832;9.126;2023-04-01T02:48:31;96821.41;;;9.75;nan
19108;BME280;9686;48.832;9.126;2023-04-01T02:50:57;96831.56;;;9.84;nan
19108;BME280;9686;48.832;9.126;2023-04-01T02:53:22;96824.00;;;9.75;nan
19108;BME280;9686;48.832;9.126;2023-04-01T02:55:47;96828.19;;;9.80;nan
19108;BME280;9686;48.832;9.126;2023-04-01T02:58:15;96825.56;;;9.82;nan
19108;BME280;9686;48.832;9.126;2023-04-01T03:00:41;96821.09;;;9.87;nan
19108;BME280;9686;48.832;9.126;2023-04-01T03:03:06;96824.63;;;9.84;nan
19108;BME280;9686;48.832;9.126;2023-04-01T03:05:31;96827.13;;;9.89;nan
19108;BME280;9686;48.832;9.126;2023-04-01T03:07:56;96824.50;;;9.91;nan
19108;BME280;9686;48.832;9.126;2023-04-01T03:10:22;96829.78;;;9.86;nan
19108;BME280;9686;48.832;9.126;2023-04-01T03:12:47;96830.59;;;9.89;nan
19108;BME280;9686;48.832;9.126;2023-04-01T03:15:13;96829.63;;;9.94;nan
19108;BME280;9686;48.832;9.126;2023-04-01T03:17:41;96834.94;;;9.87;nan
19108;BME280;9686;48.832;9.126;2023-04-01T03:20:08;96834.09;;;9.87;nan
19108;BME280;9686;48.832;9.126;2023-04-01T03:22:34;96831.63;;;9.82;nan
19108;BME280;9686;48.832;9.126;2023-04-01T03:25:01;96827.88;;;9.94;nan
19108;BME280;9686;48.832;9.126;2023-04-01T03:27:26;96826.06;;;9.96;nan
19108;BME280;9686;48.832;9.126;2023-04-01T03:29:51;96825.31;;;9.93;nan
19108;BME280;9686;48.832;9.126;2023-04-01T03:32:17;96827.13;;;9.87;nan
19108;BME280;9686;48.832;9.126;2023-04-01T03:34:42;96825.34;;;9.91;nan
19108;BME280;9686;48.832;9.126;2023-04-01T03:37:08;96827.94;;;9.91;nan
19108;BME280;9686;48.832;9.126;2023-04-01T03:39:34;96822.78;;;9.88;nan
19108;BME280;9686;48.832;9.126;2023-04-01T03:42:00;96837.63;;;9.84;nan
19108;BME280;9686;48.832;9.126;2023-04-01T03:44:25;96823.75;;;9.84;nan
19108;BME280;9686;48.832;9.126;2023-04-01T03:46:51;96828.06;;;9.85;nan
19108;BME280;9686;48.832;9.126;2023-04-01T03:49:16;96824.75;;;9.80;nan
19108;BME280;9686;48.832;9.126;2023-04-01T03:51:42;96809.03;;;9.83;nan
19108;BME280;9686;48.832;9.126;2023-04-01T03:54:08;96823.03;;;9.79;nan
19108;BME280;9686;48.832;9.126;2023-04-01T03:56:34;96815.50;;;9.68;nan
19108;BME280;9686;48.832;9.126;2023-04-01T03:59:05;96822.34;;;9.72;nan
19108;BME280;9686;48.832;9.126;2023-04-01T04:01:30;96815.47;;;9.70;nan
19108;BME280;9686;48.832;9.126;2023-04-01T04:03:56;96818.06;;;9.70;nan
19108;BME280;9686;48.832;9.126;2023-04-01T04:06:22;96813.75;;;9.69;nan
19108;BME280;9686;48.832;9.126;2023-04-01T04:08:47;96803.47;;;9.64;nan
19108;BME280;9686;48.832;9.126;2023-04-01T04:11:13;96805.88;;;9.72;nan
19108;BME280;9686;48.832;9.126;2023-04-01T04:13:38;96796.19;;;9.77;nan
19108;BME280;9686;48.832;9.126;2023-04-01T04:16:04;96798.94;;;9.72;nan
19108;BME280;9686;48.832;9.126;2023-04-01T04:18:29;96805.88;;;9.72;nan
19108;BME280;9686;48.832;9.126;2023-04-01T04:20:55;96803.16;;;9.76;nan
19108;BME280;9686;48.832;9.126;2023-04-01T04:23:21;96790.22;;;9.73;nan
19108;BME280;9686;48.832;9.126;2023-04-01T04:25:54;96798.72;;;9.80;nan
19108;BME280;9686;48.832;9.126;2023-04-01T04:28:20;96799.94;;;9.67;nan
19108;BME280;9686;48.832;9.126;2023-04-01T04:30:45;96804.22;;;9.69;nan
19108;BME280;9686;48.832;9.126;2023-04-01T04:33:10;96800.78;;;9.67;nan
19108;BME280;9686;48.832;9.126;2023-04-01T04:35:36;96800.78;;;9.67;nan
19108;BME280;9686;48.832;9.126;2023-04-01T04:38:01;96796.78;;;9.54;nan
19108;BME280;9686;48.832;9.126;2023-04-01T04:40:26;96791.56;;;9.54;nan
19108;BME280;9686;48.832;9.126;2023-04-01T04:42:51;96796.19;;;9.43;nan
19108;BME280;9686;48.832;9.126;2023-04-01T04:45:17;96788.00;;;9.58;nan
19108;BME280;9686;48.832;9.126;2023-04-01T04:47:42;96794.94;;;9.57;nan
19108;BME280;9686;48.832;9.126;2023-04-01T04:50:08;96804.53;;;9.55;nan
19108;BME280;9686;48.832;9.126;2023-04-01T04:52:33;96801.03;;;9.56;nan
19108;BME280;9686;48.832;9.126;2023-04-01T04:54:59;96796.56;;;9.62;nan
19108;BME280;9686;48.832;9.126;2023-04-01T04:57:24;96795.06;;;9.53;nan
19108;BME280;9686;48.832;9.126;2023-04-01T04:59:50;96786.38;;;9.54;nan
19108;BME280;9686;48.832;9.126;2023-04-01T05:02:15;96789.28;;;9.42;nan
19108;BME280;9686;48.832;9.126;2023-04-01T05:04:40;96798.53;;;9.53;nan
19108;BME280;9686;48.832;9.126;2023-04-01T05:07:06;96789.16;;;9.46;nan
19108;BME280;9686;48.832;9.126;2023-04-01T05:09:31;96794.88;;;9.61;nan
19108;BME280;9686;48.832;9.126;2023-04-01T05:11:57;96785.44;;;9.56;nan
19108;BME280;9686;48.832;9.126;2023-04-01T05:14:22;96792.31;;;9.59;nan
19108;BME280;9686;48.832;9.126;2023-04-01T05:16:47;96792.31;;;9.59;nan
19108;BME280;9686;48.832;9.126;2023-04-01T05:19:14;96785.44;;;9.56;nan
19108;BME280;9686;48.832;9.126;2023-04-01T05:21:39;96779.44;;;9.54;nan
19108;BME280;9686;48.832;9.126;2023-04-01T05:24:08;96783.88;;;9.49;nan
19108;BME280;9686;48.832;9.126;2023-04-01T05:26:34;96782.03;;;9.54;nan
19108;BME280;9686;48.832;9.126;2023-04-01T05:28:59;96773.25;;;9.58;nan
19108;BME280;9686;48.832;9.126;2023-04-01T05:31:25;96776.69;;;9.59;nan
19108;BME280;9686;48.832;9.126;2023-04-01T05:33:50;96767.09;;;9.61;nan
19108;BME280;9686;48.832;9.126;2023-04-01T05:36:16;96773.84;;;9.70;nan
19108;BME280;9686;48.832;9.126;2023-04-01T05:38:42;96775.47;;;9.74;nan
19108;BME280;9686;48.832;9.126;2023-04-01T05:41:08;96771.16;;;9.73;nan
19108;BME280;9686;48.832;9.126;2023-04-01T05:43:36;96769.28;;;9.78;nan
19108;BME280;9686;48.832;9.126;2023-04-01T05:46:01;96776.25;;;9.77;nan
19108;BME280;9686;48.832;9.126;2023-04-01T05:48:27;96758.72;;;9.84;nan
19108;BME280;9686;48.832;9.126;2023-04-01T05:50:52;96756.97;;;9.84;nan
19108;BME280;9686;48.832;9.126;2023-04-01T05:53:18;96754.09;;;9.95;nan
19108;BME280;9686;48.832;9.126;2023-04-01T05:55:43;96753.22;;;9.95;nan
19108;BME280;9686;48.832;9.126;2023-04-01T05:58:09;96762.88;;;9.91;nan
19108;BME280;9686;48.832;9.126;2023-04-01T06:00:34;96750.63;;;9.95;nan
19108;BME280;9686;48.832;9.126;2023-04-01T06:02:59;96750.38;;;10.04;nan
19108;BME280;9686;48.832;9.126;2023-04-01T06:05:28;96757.09;;;10.11;nan
19108;BME280;9686;48.832;9.126;2023-04-01T06:07:58;96756.09;;;10.16;nan
19108;BME280;9686;48.832;9.126;2023-04-01T06:10:43;96755.16;;;10.19;nan
19108;BME280;9686;48.832;9.126;2023-04-01T06:26:33;96745.22;;;10.33;nan
19108;BME280;9686;48.832;9.126;2023-04-01T06:29:30;96748.50;;;10.41;nan
19108;BME280;9686;48.832;9.126;2023-04-01T06:32:09;96740.28;;;10.54;nan
19108;BME280;9686;48.832;9.126;2023-04-01T06:34:53;96751.56;;;10.54;nan
19108;BME280;9686;48.832;9.126;2023-04-01T06:38:03;96747.16;;;10.56;nan
19108;BME280;9686;48.832;9.126;2023-04-01T06:40:21;96745.41;;;10.57;nan
19108;BME280;9686;48.832;9.126;2023-04-01T06:42:55;96750.78;;;10.52;nan
19108;BME280;9686;48.832;9.126;2023-04-01T06:45:28;96753.31;;;10.54;nan
19108;BME280;9686;48.832;9.126;2023-04-01T06:50:46;96748.16;;;10.52;nan
19108;BME280;9686;48.832;9.126;2023-04-01T06:53:21;96748.97;;;10.54;nan
19108;BME280;9686;48.832;9.126;2023-04-01T06:55:57;96754.00;;;10.60;nan
19108;BME280;9686;48.832;9.126;2023-04-01T06:58:33;96757.59;;;10.56;nan
19108;BME280;9686;48.832;9.126;2023-04-01T07:01:03;96744.47;;;10.59;nan
19108;BME280;9686;48.832;9.126;2023-04-01T07:03:45;96758.50;;;10.55;nan
19108;BME280;9686;48.832;9.126;2023-04-01T07:06:25;96749.44;;;10.67;nan
19108;BME280;9686;48.832;9.126;2023-04-01T07:08:55;96757.31;;;10.65;nan
19108;BME280;9686;48.832;9.126;2023-04-01T07:11:29;96755.25;;;10.76;nan
19108;BME280;9686;48.832;9.126;2023-04-01T07:14:02;96751.66;;;10.80;nan
19108;BME280;9686;48.832;9.126;2023-04-01T07:16:51;96762.78;;;10.86;nan
19108;BME280;9686;48.832;9.126;2023-04-01T07:19:23;96768.47;;;10.70;nan
19108;BME280;9686;48.832;9.126;2023-04-01T07:21:55;96766.72;;;10.71;nan
19108;BME280;9686;48.832;9.126;2023-04-01T07:24:25;96771.19;;;10.66;nan
19108;BME280;9686;48.832;9.126;2023-04-01T07:26:56;96767.72;;;10.65;nan
19108;BME280;9686;48.832;9.126;2023-04-01T07:29:22;96776.34;;;10.69;nan
19108;BME280;9686;48.832;9.126;2023-04-01T07:40:21;96785.91;;;10.68;nan
19108;BME280;9686;48.832;9.126;2023-04-01T07:45:55;96774.88;;;10.88;nan
19108;BME280;9686;48.832;9.126;2023-04-01T07:56:22;96774.78;;;10.91;nan
19108;BME280;9686;48.832;9.126;2023-04-01T08:02:16;96782.53;;;10.93;nan
19108;BME280;9686;48.832;9.126;2023-04-01T08:04:55;96774.97;;;11.13;nan
19108;BME280;9686;48.832;9.126;2023-04-01T08:07:25;96790.91;;;11.04;nan
19108;BME280;9686;48.832;9.126;2023-04-01T08:15:28;96781.66;;;11.22;nan
19108;BME280;9686;48.832;9.126;2023-04-01T08:18:28;96780.38;;;11.07;nan
19108;BME280;9686;48.832;9.126;2023-04-01T08:21:03;96781.09;;;11.12;nan
19108;BME280;9686;48.832;9.126;2023-04-01T08:23:37;96790.41;;;11.21;nan
19108;BME280;9686;48.832;9.126;2023-04-01T08:26:08;96786.53;;;11.32;nan
19108;BME280;9686;48.832;9.126;2023-04-01T08:31:13;96790.19;;;11.27;nan
19108;BME280;9686;48.832;9.126;2023-04-01T08:33:39;96794.88;;;11.16;nan
19108;BME280;9686;48.832;9.126;2023-04-01T08:36:20;96803.41;;;10.93;nan
19108;BME280;9686;48.832;9.126;2023-04-01T08:38:57;96804.22;;;10.95;nan
19108;BME280;9686;48.832;9.126;2023-04-01T08:49:47;96801.44;;;10.08;nan
19108;BME280;9686;48.832;9.126;2023-04-01T08:52:47;96797.47;;;9.95;nan
19108;BME280;9686;48.832;9.126;2023-04-01T08:55:30;96794.91;;;9.93;nan
19108;BME280;9686;48.832;9.126;2023-04-01T08:58:16;96800.16;;;9.92;nan
19108;BME280;9686;48.832;9.126;2023-04-01T09:03:43;96804.56;;;9.89;nan
19108;BME280;9686;48.832;9.126;2023-04-01T09:06:24;96794.09;;;9.91;nan
19108;BME280;9686;48.832;9.126;2023-04-01T09:22:51;96805.06;;;10.66;nan
19108;BME280;9686;48.832;9.126;2023-04-01T09:37:21;96815.22;;;11.04;nan
19108;BME280;9686;48.832;9.126;2023-04-01T09:40:02;96803.88;;;11.05;nan
19108;BME280;9686;48.832;9.126;2023-04-01T09:45:40;96808.66;;;10.91;nan
19108;BME280;9686;48.832;9.126;2023-04-01T09:48:16;96809.75;;;10.84;nan
19108;BME280;9686;48.832;9.126;2023-04-01T09:56:23;96819.03;;;10.93;nan
19108;BME280;9686;48.832;9.126;2023-04-01T10:01:49;96821.44;;;11.00;nan
19108;BME280;9686;48.832;9.126;2023-04-01T10:10:16;96818.50;;;11.11;nan
19108;BME280;9686;48.832;9.126;2023-04-01T10:16:01;96832.28;;;11.42;nan
19108;BME280;9686;48.832;9.126;2023-04-01T10:18:46;96817.69;;;11.63;nan
19108;BME280;9686;48.832;9.126;2023-04-01T10:22:00;96824.28;;;11.75;nan
19108;BME280;9686;48.832;9.126;2023-04-01T10:35:22;96823.22;;;11.54;nan
19108;BME280;9686;48.832;9.126;2023-04-01T10:38:03;96820.03;;;11.46;nan
19108;BME280;9686;48.832;9.126;2023-04-01T10:43:18;96827.84;;;11.46;nan
19108;BME280;9686;48.832;9.126;2023-04-01T10:54:37;96815.72;;;11.43;nan
19108;BME280;9686;48.832;9.126;2023-04-01T11:05:57;96824.47;;;11.69;nan
19108;BME280;9686;48.832;9.126;2023-04-01T11:08:52;96816.28;;;11.81;nan
19108;BME280;9686;48.832;9.126;2023-04-01T11:19:44;96822.78;;;12.19;nan
19108;BME280;9686;48.832;9.126;2023-04-01T11:32:51;96829.59;;;12.50;nan
19108;BME280;9686;48.832;9.126;2023-04-01T11:38:26;96839.59;;;12.37;nan
19108;BME280;9686;48.832;9.126;2023-04-01T11:46:15;96837.44;;;12.48;nan
19108;BME280;9686;48.832;9.126;2023-04-01T11:57:03;96859.97;;;12.27;nan
19108;BME280;9686;48.832;9.126;2023-04-01T12:05:22;96853.84;;;12.28;nan
19108;BME280;9686;48.832;9.126;2023-04-01T12:08:03;96860.94;;;12.25;nan
19108;BME280;9686;48.832;9.126;2023-04-01T12:10:54;96860.66;;;12.32;nan
19108;BME280;9686;48.832;9.126;2023-04-01T12:19:11;96862.66;;;12.26;nan
19108;BME280;9686;48.832;9.126;2023-04-01T12:21:57;96864.53;;;12.46;nan
19108;BME280;9686;48.832;9.126;2023-04-01T12:25:24;96861.84;;;12.24;nan
19108;BME280;9686;48.832;9.126;2023-04-01T12:30:44;96859.53;;;12.40;nan
19108;BME280;9686;48.832;9.126;2023-04-01T12:48:10;96865.84;;;12.59;nan
19108;BME280;9686;48.832;9.126;2023-04-01T12:50:38;96876.28;;;12.59;nan
19108;BME280;9686;48.832;9.126;2023-04-01T12:55:50;96870.78;;;12.42;nan
19108;BME280;9686;48.832;9.126;2023-04-01T13:01:08;96867.59;;;12.58;nan
19108;BME280;9686;48.832;9.126;2023-04-01T13:03:52;96881.47;;;12.60;nan
19108;BME280;9686;48.832;9.126;2023-04-01T13:09:46;96887.31;;;12.42;nan
19108;BME280;9686;48.832;9.126;2023-04-01T13:12:26;96889.13;;;12.40;nan
19108;BME280;9686;48.832;9.126;2023-04-01T13:26:27;96901.28;;;12.41;nan
19108;BME280;9686;48.832;9.126;2023-04-01T13:29:03;96898.53;;;12.46;nan
19108;BME280;9686;48.832;9.126;2023-04-01T13:31:42;96895.28;;;12.39;nan
19108;BME280;9686;48.832;9.126;2023-04-01T13:37:20;96895.72;;;12.52;nan
19108;BME280;9686;48.832;9.126;2023-04-01T13:40:13;96903.97;;;12.64;nan
19108;BME280;9686;48.832;9.126;2023-04-01T13:42:48;96909.94;;;12.68;nan
19108;BME280;9686;48.832;9.126;2023-04-01T13:45:18;96920.34;;;12.70;nan
19108;BME280;9686;48.832;9.126;2023-04-01T13:48:17;96931.94;;;12.62;nan
19108;BME280;9686;48.832;9.126;2023-04-01T13:53:59;96928.22;;;12.43;nan
19108;BME280;9686;48.832;9.126;2023-04-01T13:56:56;96921.06;;;12.48;nan
19108;BME280;9686;48.832;9.126;2023-04-01T13:59:43;96917.78;;;12.43;nan
19108;BME280;9686;48.832;9.126;2023-04-01T14:10:43;96923.75;;;12.47;nan
19108;BME280;9686;48.832;9.126;2023-04-01T14:13:31;96925.72;;;12.40;nan
19108;BME280;9686;48.832;9.126;2023-04-01T14:30:45;96930.94;;;11.87;nan
19108;BME280;9686;48.832;9.126;2023-04-01T14:33:43;96933.44;;;11.62;nan
19108;BME280;9686;48.832;9.126;2023-04-01T14:39:13;96945.28;;;11.44;nan
19108;BME280;9686;48.832;9.126;2023-04-01T14:44:44;96937.28;;;11.51;nan
19108;BME280;9686;48.832;9.126;2023-04-01T14:47:38;96943.22;;;11.56;nan
19108;BME280;9686;48.832;9.126;2023-04-01T14:50:29;96942.88;;;11.66;nan
19108;BME280;9686;48.832;9.126;2023-04-01T15:00:55;96943.16;;;11.87;nan
19108;BME280;9686;48.832;9.126;2023-04-01T15:03:29;96952.31;;;12.00;nan
19108;BME280;9686;48.832;9.126;2023-04-01T15:06:40;96949.59;;;12.03;nan
19108;BME280;9686;48.832;9.126;2023-04-01T15:09:42;96941.88;;;12.00;nan
19108;BME280;9686;48.832;9.126;2023-04-01T15:15:03;96956.53;;;12.04;nan
19108;BME280;9686;48.832;9.126;2023-04-01T15:17:43;96953.88;;;12.06;nan
19108;BME280;9686;48.832;9.126;2023-04-01T15:20:29;96946.53;;;12.17;nan
19108;BME280;9686;48.832;9.126;2023-04-01T15:23:21;96952.66;;;12.16;nan
19108;BME280;9686;48.832;9.126;2023-04-01T15:31:29;96960.59;;;12.39;nan
19108;BME280;9686;48.832;9.126;2023-04-01T15:34:24;96959.91;;;12.34;nan
19108;BME280;9686;48.832;9.126;2023-04-01T15:39:57;96966.38;;;12.22;nan
19108;BME280;9686;48.832;9.126;2023-04-01T15:56:00;96985.34;;;12.29;nan
19108;BME280;9686;48.832;9.126;2023-04-01T16:01:26;96993.66;;;12.14;nan
19108;BME280;9686;48.832;9.126;2023-04-01T16:07:08;96988.84;;;12.01;nan
19108;BME280;9686;48.832;9.126;2023-04-01T16:12:19;97002.91;;;11.96;nan
19108;BME280;9686;48.832;9.126;2023-04-01T16:15:48;97002.00;;;11.97;nan
19108;BME280;9686;48.832;9.126;2023-04-01T16:18:13;97003.88;;;11.93;nan
19108;BME280;9686;48.832;9.126;2023-04-01T16:25:49;97010.34;;;11.82;nan
19108;BME280;9686;48.832;9.126;2023-04-01T16:31:43;97012.25;;;11.75;nan
19108;BME280;9686;48.832;9.126;2023-04-01T16:34:44;97015.50;;;11.83;nan
19108;BME280;9686;48.832;9.126;2023-04-01T16:37:20;97020.97;;;11.74;nan
19108;BME280;9686;48.832;9.126;2023-04-01T16:42:35;97021.03;;;11.72;nan
19108;BME280;9686;48.832;9.126;2023-04-01T16:50:27;97015.84;;;11.71;nan
19108;BME280;9686;48.832;9.126;2023-04-01T16:53:17;97017.59;;;11.70;nan
19108;BME280;9686;48.832;9.126;2023-04-01T16:58:26;97026.28;;;11.71;nan
19108;BME280;9686;48.832;9.126;2023-04-01T17:01:07;97025.34;;;11.73;nan
19108;BME280;9686;48.832;9.126;2023-04-01T17:03:42;97022.38;;;11.86;nan
19108;BME280;9686;48.832;9.126;2023-04-01T17:08:53;97020.88;;;11.77;nan
19108;BME280;9686;48.832;9.126;2023-04-01T17:11:39;97022.38;;;11.86;nan
19108;BME280;9686;48.832;9.126;2023-04-01T17:14:23;97033.34;;;11.67;nan
19108;BME280;9686;48.832;9.126;2023-04-01T17:16:58;97027.16;;;11.71;nan
19108;BME280;9686;48.832;9.126;2023-04-01T17:25:20;97038.16;;;11.83;nan
19108;BME280;9686;48.832;9.126;2023-04-01T17:30:37;97053.97;;;11.77;nan
19108;BME280;9686;48.832;9.126;2023-04-01T17:33:28;97052.91;;;11.84;nan
19108;BME280;9686;48.832;9.126;2023-04-01T17:35:59;97060.03;;;11.79;nan
19108;BME280;9686;48.832;9.126;2023-04-01T17:38:53;97065.06;;;11.85;nan
19108;BME280;9686;48.832;9.126;2023-04-01T17:47:21;97081.72;;;11.81;nan
19108;BME280;9686;48.832;9.126;2023-04-01T17:52:28;97087.91;;;11.78;nan
19108;BME280;9686;48.832;9.126;2023-04-01T17:57:46;97099.03;;;11.52;nan
19108;BME280;9686;48.832;9.126;2023-04-01T18:00:24;97103.72;;;11.39;nan
19108;BME280;9686;48.832;9.126;2023-04-01T18:03:04;97099.56;;;11.32;nan
19108;BME280;9686;48.832;9.126;2023-04-01T18:05:58;97100.13;;;11.11;nan
19108;BME280;9686;48.832;9.126;2023-04-01T18:11:39;97096.94;;;11.01;nan
19108;BME280;9686;48.832;9.126;2023-04-01T18:14:28;97108.81;;;10.77;nan
19108;BME280;9686;48.832;9.126;2023-04-01T18:20:01;97107.97;;;10.77;nan
19108;BME280;9686;48.832;9.126;2023-04-01T18:22:48;97105.41;;;10.75;nan
19108;BME280;9686;48.832;9.126;2023-04-01T18:25:42;97120.06;;;10.79;nan
19108;BME280;9686;48.832;9.126;2023-04-01T18:30:40;97122.78;;;10.75;nan
19108;BME280;9686;48.832;9.126;2023-04-01T18:33:26;97125.47;;;10.72;nan
19108;BME280;9686;48.832;9.126;2023-04-01T18:36:16;97125.41;;;10.75;nan
19108;BME280;9686;48.832;9.126;2023-04-01T18:38:49;97128.03;;;10.73;nan
19108;BME280;9686;48.832;9.126;2023-04-01T18:41:15;97135.13;;;10.67;nan
19108;BME280;9686;48.832;9.126;2023-04-01T18:43:54;97136.91;;;10.65;nan
19108;BME280;9686;48.832;9.126;2023-04-01T18:49:29;97144.69;;;10.66;nan
19108;BME280;9686;48.832;9.126;2023-04-01T18:52:03;97146.75;;;10.54;nan
19108;BME280;9686;48.832;9.126;2023-04-01T18:54:43;97145.88;;;10.53;nan
19108;BME280;9686;48.832;9.126;2023-04-01T18:57:19;97158.09;;;10.51;nan
19108;BME280;9686;48.832;9.126;2023-04-01T19:00:08;97171.09;;;10.53;nan
19108;BME280;9686;48.832;9.126;2023-04-01T19:02:46;97169.41;;;10.50;nan
19108;BME280;9686;48.832;9.126;2023-04-01T19:05:29;97172.88;;;10.50;nan
19108;BME280;9686;48.832;9.126;2023-04-01T19:08:12;97170.41;;;10.44;nan
19108;BME280;9686;48.832;9.126;2023-04-01T19:10:59;97167.81;;;10.44;nan
19108;BME280;9686;48.832;9.126;2023-04-01T19:16:55;97164.59;;;10.32;nan
19108;BME280;9686;48.832;9.126;2023-04-01T19:19:56;97164.78;;;10.24;nan
19108;BME280;9686;48.832;9.126;2023-04-01T19:22:44;97166.59;;;10.21;nan
19108;BME280;9686;48.832;9.126;2023-04-01T19:25:29;97170.91;;;10.20;nan
19108;BME280;9686;48.832;9.126;2023-04-01T19:33:57;97167.03;;;9.98;nan
19108;BME280;9686;48.832;9.126;2023-04-01T19:42:21;97161.06;;;9.93;nan
19108;BME280;9686;48.832;9.126;2023-04-01T19:44:53;97165.22;;;10.01;nan
19108;BME280;9686;48.832;9.126;2023-04-01T19:52:48;97179.44;;;9.85;nan
19108;BME280;9686;48.832;9.126;2023-04-01T19:58:02;97181.09;;;9.87;nan
19108;BME280;9686;48.832;9.126;2023-04-01T20:00:31;97189.66;;;9.94;nan
19108;BME280;9686;48.832;9.126;2023-04-01T20:03:11;97189.63;;;9.96;nan
19108;BME280;9686;48.832;9.126;2023-04-01T20:16:09;97188.44;;;10.10;nan
19108;BME280;9686;48.832;9.126;2023-04-01T20:18:50;97193.63;;;10.12;nan
19108;BME280;9686;48.832;9.126;2023-04-01T20:21:24;97203.94;;;10.18;nan
19108;BME280;9686;48.832;9.126;2023-04-01T20:24:04;97196.97;;;10.18;nan
19108;BME280;9686;48.832;9.126;2023-04-01T20:26:35;97198.66;;;10.23;nan
19108;BME280;9686;48.832;9.126;2023-04-01T20:31:41;97216.59;;;10.36;nan
19108;BME280;9686;48.832;9.126;2023-04-01T20:37:29;97220.97;;;10.34;nan
19108;BME280;9686;48.832;9.126;2023-04-01T20:45:38;97230.44;;;10.38;nan
19108;BME280;9686;48.832;9.126;2023-04-01T20:50:48;97231.47;;;10.31;nan
19108;BME280;9686;48.832;9.126;2023-04-01T20:53:42;97237.66;;;10.26;nan
19108;BME280;9686;48.832;9.126;2023-04-01T20:56:29;97225.31;;;10.34;nan
19108;BME280;9686;48.832;9.126;2023-04-01T21:07:50;97242.00;;;10.25;nan
19108;BME280;9686;48.832;9.126;2023-04-01T21:13:17;97246.31;;;10.28;nan
19108;BME280;9686;48.832;9.126;2023-04-01T21:18:47;97245.28;;;10.35;nan
19108;BME280;9686;48.832;9.126;2023-04-01T21:27:21;97247.78;;;10.41;nan
19108;BME280;9686;48.832;9.126;2023-04-01T21:49:24;97279.31;;;10.27;nan
19108;BME280;9686;48.832;9.126;2023-04-01T21:54:59;97283.16;;;10.05;nan
19108;BME280;9686;48.832;9.126;2023-04-01T21:57:54;97292.50;;;10.16;nan